createdAt,value
2022-10-09T00:02:39.964Z,12.04
2022-10-09T00:07:41.501Z,11.96
2022-10-09T00:12:42.966Z,12.03
2022-10-09T00:17:44.389Z,11.94
2022-10-09T00:22:46.070Z,12.01
2022-10-09T00:27:48.120Z,11.91
2022-10-09T00:32:49.749Z,11.88
2022-10-09T00:37:51.401Z,11.92
2022-10-09T00:42:57.222Z,11.77
2022-10-09T00:48:04.801Z,11.81
2022-10-09T00:53:06.630Z,11.85
2022-10-09T00:58:08.524Z,11.53
2022-10-09T01:03:10.055Z,11.58
2022-10-09T01:08:19.093Z,11.66
2022-10-09T01:13:32.548Z,11.67
2022-10-09T01:18:45.501Z,11.56
2022-10-09T01:23:52.769Z,11.56
2022-10-09T01:29:00.123Z,11.32
2022-10-09T01:34:01.937Z,11.32
2022-10-09T01:39:05.879Z,11.13
2022-10-09T01:44:18.664Z,11.00
2022-10-09T01:50:04.131Z,11.17
2022-10-09T01:55:16.172Z,11.26
2022-10-09T02:00:18.396Z,11.03
2022-10-09T02:05:23.398Z,11.05
2022-10-09T02:10:25.901Z,10.94
2022-10-09T02:15:33.852Z,11.03
2022-10-09T02:20:39.474Z,10.91
2022-10-09T02:25:41.319Z,10.89
2022-10-09T02:31:13.538Z,10.67
2022-10-09T02:36:15.009Z,10.67
2022-10-09T02:41:16.448Z,10.65
2022-10-09T02:46:18.855Z,10.76
2022-10-09T02:51:20.336Z,10.64
2022-10-09T02:56:25.257Z,10.76
2022-10-09T03:01:26.755Z,10.66
2022-10-09T03:06:29.156Z,10.64
2022-10-09T03:11:30.618Z,10.46
2022-10-09T03:16:32.154Z,10.34
2022-10-09T03:21:33.638Z,10.34
2022-10-09T03:26:35.046Z,10.42
2022-10-09T03:31:53.297Z,10.28
2022-10-09T03:36:54.962Z,10.20
2022-10-09T03:41:56.456Z,10.16
2022-10-09T03:46:57.891Z,10.25
2022-10-09T03:51:59.452Z,10.26
2022-10-09T03:57:00.906Z,10.28
2022-10-09T04:02:02.358Z,10.30
2022-10-09T04:07:03.784Z,10.22
2022-10-09T04:12:05.283Z,10.16
2022-10-09T04:17:07.215Z,9.93
2022-10-09T04:22:08.667Z,10.02
2022-10-09T04:27:10.162Z,10.01
2022-10-09T04:32:11.625Z,9.83
2022-10-09T04:37:13.041Z,9.86
2022-10-09T04:42:14.533Z,9.83
2022-10-09T04:47:15.989Z,9.93
2022-10-09T04:52:17.450Z,9.98
2022-10-09T04:57:18.870Z,10.02
2022-10-09T05:02:20.322Z,9.95
2022-10-09T05:07:21.765Z,10.00
2022-10-09T05:12:23.301Z,9.85
2022-10-09T05:17:24.889Z,9.93
2022-10-09T05:22:26.366Z,9.80
2022-10-09T05:27:27.795Z,9.87
2022-10-09T05:32:29.194Z,9.99
2022-10-09T05:37:30.598Z,9.99
2022-10-09T05:42:32.017Z,9.99
2022-10-09T05:47:33.430Z,9.98
2022-10-09T05:52:38.615Z,10.14
2022-10-09T05:57:40.056Z,10.22
2022-10-09T06:02:41.597Z,10.36
2022-10-09T06:07:43.100Z,10.47
2022-10-09T06:12:44.496Z,10.47
2022-10-09T06:17:45.968Z,10.54
2022-10-09T06:22:47.583Z,10.51
2022-10-09T06:27:49.291Z,10.73
2022-10-09T06:32:51.147Z,10.77
2022-10-09T06:37:53.072Z,10.89
2022-10-09T06:42:54.518Z,10.89
2022-10-09T06:47:56.144Z,10.90
2022-10-09T06:52:57.560Z,11.01
2022-10-09T06:57:59.566Z,11.14
2022-10-09T07:03:01.071Z,11.33
2022-10-09T07:08:02.560Z,11.41
2022-10-09T07:13:04.013Z,11.42
2022-10-09T07:18:05.656Z,11.64
2022-10-09T07:23:07.144Z,11.53
2022-10-09T07:28:08.623Z,11.62
2022-10-09T07:33:10.165Z,11.79
2022-10-09T07:38:11.565Z,11.88
2022-10-09T07:43:12.977Z,12.12
2022-10-09T07:48:14.462Z,12.57
2022-10-09T07:53:15.862Z,12.70
2022-10-09T07:58:17.575Z,13.04
2022-10-09T08:03:19.013Z,13.22
2022-10-09T08:08:20.431Z,13.38
2022-10-09T08:13:22.146Z,13.14
2022-10-09T08:18:23.558Z,13.28
2022-10-09T08:23:25.101Z,13.51
2022-10-09T08:28:26.715Z,13.87
2022-10-09T08:33:28.199Z,13.89
2022-10-09T08:38:46.761Z,13.73
2022-10-09T08:43:56.149Z,14.16
2022-10-09T08:49:00.605Z,14.58
2022-10-09T08:54:12.575Z,14.55
2022-10-09T08:59:14.181Z,14.20
2022-10-09T09:04:34.742Z,14.46
2022-10-09T09:09:46.974Z,14.78
2022-10-09T09:15:10.092Z,15.01
2022-10-09T09:20:31.379Z,15.41
2022-10-09T09:25:35.990Z,15.03
2022-10-09T09:30:51.957Z,14.99
2022-10-09T09:36:09.090Z,14.99
2022-10-09T09:41:10.503Z,14.99
2022-10-09T09:46:17.614Z,14.55
2022-10-09T09:51:29.661Z,14.43
2022-10-09T09:57:07.050Z,14.72
2022-10-09T10:02:12.695Z,14.53
2022-10-09T10:07:14.197Z,14.64
2022-10-09T10:12:18.245Z,14.58
2022-10-09T10:17:28.364Z,14.81
2022-10-09T10:22:36.027Z,15.15
2022-10-09T10:27:41.810Z,15.46
2022-10-09T10:33:03.939Z,15.71
2022-10-09T10:38:29.704Z,15.92
2022-10-09T10:43:35.127Z,16.21
2022-10-09T10:48:47.087Z,16.12
2022-10-09T10:54:05.454Z,16.20
2022-10-09T10:59:33.340Z,16.46
2022-10-09T11:04:49.995Z,16.05
2022-10-09T11:10:19.874Z,16.19
2022-10-09T11:15:26.377Z,16.49
2022-10-09T11:20:39.447Z,16.05
2022-10-09T11:25:58.969Z,15.76
2022-10-09T11:31:16.924Z,15.26
2022-10-09T11:36:39.988Z,15.31
2022-10-09T11:41:45.234Z,15.40
2022-10-09T11:47:01.597Z,16.01
2022-10-09T11:52:16.998Z,16.36
2022-10-09T11:57:28.418Z,16.33
2022-10-09T12:02:31.297Z,16.51
2022-10-09T12:07:36.922Z,16.34
2022-10-09T12:12:38.855Z,16.22
2022-10-09T12:17:48.627Z,15.87
2022-10-09T12:23:21.271Z,15.60
2022-10-09T12:28:39.218Z,15.39
2022-10-09T12:33:45.719Z,15.43
2022-10-09T12:38:47.172Z,15.49
2022-10-09T12:43:50.998Z,15.83
2022-10-09T12:48:53.119Z,15.98
2022-10-09T12:53:55.087Z,16.17
2022-10-09T12:58:58.545Z,16.29
2022-10-09T13:04:04.195Z,16.17
2022-10-09T13:09:08.436Z,16.26
2022-10-09T13:14:26.637Z,16.30
2022-10-09T13:19:31.219Z,16.46
2022-10-09T13:24:32.747Z,16.52
2022-10-09T13:29:34.446Z,16.61
2022-10-09T13:34:35.912Z,16.59
2022-10-09T13:39:37.599Z,16.56
2022-10-09T13:44:39.015Z,16.23
2022-10-09T13:49:40.555Z,15.85
2022-10-09T13:54:42.437Z,15.78
2022-10-09T13:59:43.909Z,16.08
2022-10-09T14:04:45.708Z,16.20
2022-10-09T14:09:47.214Z,16.34
2022-10-09T14:14:48.642Z,16.37
2022-10-09T14:19:50.620Z,16.40
2022-10-09T14:24:52.062Z,16.37
2022-10-09T14:29:55.393Z,16.27
2022-10-09T14:34:59.003Z,16.17
2022-10-09T14:40:00.413Z,16.11
2022-10-09T14:45:01.943Z,16.04
2022-10-09T14:50:03.947Z,15.91
2022-10-09T14:55:05.797Z,15.87
2022-10-09T15:00:08.787Z,15.73
2022-10-09T15:05:10.571Z,15.64
2022-10-09T15:10:12.259Z,15.55
2022-10-09T15:15:13.812Z,15.35
2022-10-09T15:20:15.376Z,15.23
2022-10-09T15:25:16.872Z,15.14
2022-10-09T15:30:18.307Z,15.01
2022-10-09T15:35:20.167Z,14.88
2022-10-09T15:40:21.629Z,14.82
2022-10-09T15:45:23.050Z,14.76
2022-10-09T15:50:24.453Z,14.57
2022-10-09T15:55:25.860Z,14.44
2022-10-09T16:00:27.256Z,14.34
2022-10-09T16:05:28.661Z,14.20
2022-10-09T16:10:30.065Z,14.08
2022-10-09T16:15:31.465Z,13.95
2022-10-09T16:20:37.502Z,13.83
2022-10-09T16:25:40.162Z,13.67
2022-10-09T16:30:44.304Z,13.52
2022-10-09T16:35:46.381Z,13.46
2022-10-09T16:41:01.494Z,13.37
2022-10-09T16:46:23.367Z,13.30
2022-10-09T16:51:31.527Z,13.22
2022-10-09T16:56:36.208Z,13.17
2022-10-09T17:01:43.521Z,13.07
2022-10-09T17:06:46.432Z,12.96
2022-10-09T17:11:48.360Z,12.86
2022-10-09T17:16:49.848Z,12.75
2022-10-09T17:21:51.260Z,12.64
2022-10-09T17:26:53.076Z,12.51
2022-10-09T17:31:54.559Z,12.41
2022-10-09T17:36:56.551Z,12.30
2022-10-09T17:41:58.033Z,12.21
2022-10-09T17:47:00.810Z,12.16
2022-10-09T17:52:02.291Z,12.13
2022-10-09T17:57:06.846Z,12.07
2022-10-09T18:02:08.326Z,11.95
2022-10-09T18:07:09.760Z,11.82
2022-10-09T18:12:11.180Z,11.82
2022-10-09T18:17:12.633Z,11.75
2022-10-09T18:22:14.052Z,11.66
2022-10-09T18:27:15.489Z,11.69
2022-10-09T18:32:16.900Z,11.67
2022-10-09T18:37:19.965Z,11.64
2022-10-09T18:42:21.387Z,11.46
2022-10-09T18:47:28.290Z,11.40
2022-10-09T18:52:30.201Z,11.34
2022-10-09T18:57:33.288Z,11.24
2022-10-09T19:02:34.753Z,11.15
2022-10-09T19:07:36.287Z,11.22
2022-10-09T19:12:37.809Z,11.22
2022-10-09T19:17:39.237Z,11.24
2022-10-09T19:22:40.730Z,11.16
2022-10-09T19:27:42.140Z,11.09
2022-10-09T19:32:43.596Z,11.00
2022-10-09T19:37:45.049Z,10.88
2022-10-09T19:42:46.488Z,10.82
2022-10-09T19:47:52.300Z,10.78
2022-10-09T19:52:56.229Z,10.78
2022-10-09T19:57:57.969Z,10.73
2022-10-09T20:02:59.423Z,10.64
2022-10-09T20:08:01.318Z,10.55
2022-10-09T20:13:03.322Z,10.48
2022-10-09T20:18:04.785Z,10.43
2022-10-09T20:23:06.205Z,10.33
2022-10-09T20:28:07.623Z,10.26
2022-10-09T20:33:09.389Z,10.21
2022-10-09T20:38:10.824Z,10.14
2022-10-09T20:43:13.340Z,10.07
2022-10-09T20:48:14.833Z,10.06
2022-10-09T20:53:16.855Z,10.02
2022-10-09T20:58:19.354Z,9.93
2022-10-09T21:03:20.873Z,9.88
2022-10-09T21:08:22.411Z,9.82
2022-10-09T21:13:23.966Z,9.79
2022-10-09T21:18:25.444Z,9.72
2022-10-09T21:23:26.853Z,9.54
2022-10-09T21:28:28.639Z,9.45
2022-10-09T21:33:30.074Z,9.34
2022-10-09T21:38:33.002Z,9.38
2022-10-09T21:43:34.452Z,9.27
2022-10-09T21:48:35.866Z,9.25
2022-10-09T21:53:37.484Z,9.16
2022-10-09T21:58:40.301Z,8.99
2022-10-09T22:03:41.872Z,8.96
2022-10-09T22:08:43.683Z,8.85
2022-10-09T22:13:45.153Z,8.78
2022-10-09T22:18:46.576Z,8.74
2022-10-09T22:23:48.248Z,8.76
2022-10-09T22:28:50.360Z,8.76
2022-10-09T22:34:00.396Z,8.83
2022-10-09T22:39:05.092Z,8.81
2022-10-09T22:44:07.996Z,8.74
2022-10-09T22:49:12.511Z,8.74
2022-10-09T22:54:14.086Z,8.73
2022-10-09T22:59:17.941Z,8.68
2022-10-09T23:04:21.541Z,8.58
2022-10-09T23:09:25.578Z,8.55
2022-10-09T23:14:27.662Z,8.36
2022-10-09T23:19:29.064Z,8.36
2022-10-09T23:24:30.503Z,8.40
2022-10-09T23:29:31.953Z,8.34
2022-10-09T23:34:33.395Z,8.26
2022-10-09T23:39:34.939Z,8.13
2022-10-09T23:44:36.349Z,8.18
2022-10-09T23:49:37.844Z,8.07
2022-10-09T23:54:39.251Z,8.02
2022-10-09T23:59:41.627Z,8.01
